Mount Sterling, Kentucky
Current Conditions -  °F | °C
As of 3:35 AM on Friday 24 Oct 2014 (Local Time) from KIOB Reporting Station
Haze Haze  
Wind Chill: 37°   Ceiling: Unl
Heat Index: 37°   Visibility: 5mi
Dew Point: 37°   Wind: 0mph
Humidity: 100%   Direction: NA
Pressure: 30.14"   Gusts: NA
Location:  38.06°N, 83.94°W
Report Text: KIOB 240735Z AUTO 00000KT 5SM BR CLR 03/03 A3014 RMK AO2
Loading
Personal Weather Stations






























Interactive Weather Map
Tropical Storm Tracking
New forecast layout! Learn more

10-Day Weather Forecast

Advertisements
Track Severe Weather on mobile